createdAt,value
2018-03-06T00:02:02.898Z,46.67
2018-03-06T00:04:35.512Z,50.57
2018-03-06T00:07:08.914Z,53.37
2018-03-06T00:09:41.572Z,52.10
2018-03-06T00:12:14.316Z,51.57
2018-03-06T00:14:46.954Z,53.07
2018-03-06T00:17:19.322Z,55.73
2018-03-06T00:19:52.573Z,51.80
2018-03-06T00:22:25.408Z,38.83
2018-03-06T00:24:57.861Z,50.50
2018-03-06T00:27:30.374Z,48.20
2018-03-06T00:30:02.814Z,54.50
2018-03-06T00:32:36.006Z,46.83
2018-03-06T00:35:09.362Z,41.17
2018-03-06T00:37:42.056Z,42.73
2018-03-06T00:40:14.623Z,53.90
2018-03-06T00:42:47.109Z,52.33
2018-03-06T00:45:19.641Z,42.40
2018-03-06T00:47:52.122Z,43.33
2018-03-06T00:50:25.469Z,51.97
2018-03-06T00:52:58.093Z,44.27
2018-03-06T00:55:31.236Z,48.30
2018-03-06T00:58:04.063Z,46.07
2018-03-06T01:00:37.505Z,50.07
2018-03-06T01:03:10.640Z,38.60
2018-03-06T01:05:43.251Z,46.77
2018-03-06T01:08:15.870Z,45.23
2018-03-06T01:10:48.480Z,43.23
2018-03-06T01:13:21.975Z,51.57
2018-03-06T01:15:54.735Z,42.37
2018-03-06T01:18:27.975Z,50.47
2018-03-06T01:21:00.731Z,45.53
2018-03-06T01:23:33.219Z,43.23
2018-03-06T01:26:05.581Z,43.13
2018-03-06T01:28:37.984Z,37.40
2018-03-06T01:31:10.689Z,43.57
2018-03-06T01:33:43.167Z,41.67
2018-03-06T01:36:15.732Z,40.43
2018-03-06T01:38:48.326Z,44.80
2018-03-06T01:41:20.905Z,52.10
2018-03-06T01:43:53.479Z,55.10
2018-03-06T01:46:26.036Z,44.90
2018-03-06T01:48:58.553Z,42.83
2018-03-06T01:51:50.167Z,46.80
2018-03-06T01:54:22.576Z,42.10
2018-03-06T01:56:55.693Z,51.80
2018-03-06T01:59:29.139Z,38.57
2018-03-06T02:02:02.193Z,44.77
2018-03-06T02:04:35.586Z,55.87
2018-03-06T02:07:08.205Z,44.77
2018-03-06T02:09:40.760Z,52.07
2018-03-06T02:12:14.155Z,46.87
2018-03-06T02:14:46.659Z,50.77
2018-03-06T02:17:19.779Z,42.63
2018-03-06T02:19:53.167Z,51.90
2018-03-06T02:22:26.118Z,54.90
2018-03-06T02:24:58.655Z,43.10
2018-03-06T02:27:31.248Z,45.33
2018-03-06T02:30:03.910Z,42.83
2018-03-06T02:32:36.445Z,38.03
2018-03-06T02:35:09.036Z,47.70
2018-03-06T02:37:43.134Z,37.33
2018-03-06T02:40:15.899Z,39.37
2018-03-06T02:42:49.536Z,51.70
2018-03-06T02:45:23.454Z,55.77
2018-03-06T02:47:56.156Z,43.00
2018-03-06T02:50:28.689Z,53.87
2018-03-06T02:53:01.284Z,52.83
2018-03-06T02:55:34.656Z,47.67
2018-03-06T02:58:07.024Z,43.87
2018-03-06T03:00:39.575Z,39.97
2018-03-06T03:03:12.312Z,45.07
2018-03-06T03:05:45.547Z,43.57
2018-03-06T03:08:17.989Z,42.47
2018-03-06T03:10:50.662Z,53.60
2018-03-06T03:13:24.069Z,42.10
2018-03-06T03:15:57.268Z,43.53
2018-03-06T03:18:30.694Z,51.43
2018-03-06T03:21:04.265Z,43.53
2018-03-06T03:23:37.180Z,38.40
2018-03-06T03:26:10.364Z,41.87
2018-03-06T03:28:43.055Z,52.47
2018-03-06T03:31:16.426Z,51.27
2018-03-06T03:33:49.136Z,52.33
2018-03-06T03:36:22.626Z,52.40
2018-03-06T03:38:55.413Z,45.87
2018-03-06T03:41:28.066Z,50.40
2018-03-06T03:44:00.519Z,48.07
2018-03-06T03:46:33.875Z,47.40
2018-03-06T03:49:06.648Z,39.17
2018-03-06T03:51:39.319Z,36.53
2018-03-06T03:54:11.818Z,43.53
2018-03-06T03:56:44.224Z,56.97
2018-03-06T03:59:17.663Z,44.90
2018-03-06T04:01:50.286Z,46.00
2018-03-06T04:04:22.733Z,52.80
2018-03-06T04:06:55.230Z,40.50
2018-03-06T04:09:28.654Z,43.13
2018-03-06T04:12:01.240Z,39.70
2018-03-06T04:14:33.776Z,51.07
2018-03-06T04:17:06.364Z,51.53
2018-03-06T04:19:38.831Z,48.77
2018-03-06T04:22:11.323Z,46.90
2018-03-06T04:24:44.537Z,37.53
2018-03-06T04:27:17.262Z,54.20
2018-03-06T04:29:50.563Z,56.17
2018-03-06T04:32:23.083Z,52.00
2018-03-06T04:34:55.624Z,46.20
2018-03-06T04:37:28.240Z,42.03
2018-03-06T04:40:02.358Z,49.13
2018-03-06T04:42:35.186Z,46.63
2018-03-06T04:45:07.794Z,40.10
2018-03-06T04:47:40.375Z,46.40
2018-03-06T04:50:13.798Z,54.10
2018-03-06T04:52:46.524Z,51.20
2018-03-06T04:55:19.773Z,56.37
2018-03-06T04:57:53.206Z,50.83
2018-03-06T05:00:25.970Z,51.10
2018-03-06T05:02:58.423Z,35.90
2018-03-06T05:05:30.978Z,43.47
2018-03-06T05:08:03.493Z,57.57
2018-03-06T05:10:36.151Z,53.17
2018-03-06T05:13:09.500Z,39.50
2018-03-06T05:15:42.064Z,54.53
2018-03-06T05:18:16.179Z,47.70
2018-03-06T05:20:48.997Z,47.17
2018-03-06T05:23:21.536Z,41.13
2018-03-06T05:25:54.901Z,41.97
2018-03-06T05:28:27.531Z,53.67
2018-03-06T05:31:00.800Z,56.73
2018-03-06T05:33:33.466Z,44.73
2018-03-06T05:36:06.063Z,57.17
2018-03-06T05:38:38.736Z,41.03
2018-03-06T05:41:11.925Z,53.20
2018-03-06T05:43:44.771Z,55.07
2018-03-06T05:46:17.332Z,59.73
2018-03-06T05:48:49.711Z,54.70
2018-03-06T05:51:22.144Z,54.20
2018-03-06T05:53:54.700Z,49.77
2018-03-06T05:56:27.558Z,49.47
2018-03-06T05:59:00.989Z,54.83
2018-03-06T06:01:33.820Z,59.10
2018-03-06T06:04:07.113Z,52.33
2018-03-06T06:06:40.666Z,53.90
2018-03-06T06:09:13.526Z,45.53
2018-03-06T06:11:46.968Z,57.50
2018-03-06T06:14:21.091Z,47.97
2018-03-06T06:16:53.992Z,46.43
2018-03-06T06:19:26.609Z,60.60
2018-03-06T06:21:58.983Z,49.23
2018-03-06T06:24:31.487Z,52.80
2018-03-06T06:27:04.527Z,52.30
2018-03-06T06:29:37.303Z,53.73
2018-03-06T06:32:10.569Z,45.73
2018-03-06T06:34:43.076Z,54.50
2018-03-06T06:37:15.591Z,49.40
2018-03-06T06:39:48.083Z,63.23
2018-03-06T06:42:21.249Z,50.23
2018-03-06T06:44:54.111Z,51.53
2018-03-06T06:47:26.568Z,58.13
2018-03-06T06:49:58.936Z,52.13
2018-03-06T06:52:31.445Z,55.07
2018-03-06T06:55:04.042Z,52.13
2018-03-06T06:57:36.574Z,40.50
2018-03-06T07:00:09.082Z,33.50
2018-03-06T07:02:41.485Z,49.30
2018-03-06T07:05:14.042Z,42.63
2018-03-06T07:07:47.229Z,38.77
2018-03-06T07:10:20.287Z,42.73
2018-03-06T07:12:53.504Z,41.73
2018-03-06T07:15:26.749Z,44.07
2018-03-06T07:17:59.447Z,43.47
2018-03-06T07:20:31.846Z,40.97
2018-03-06T07:23:05.268Z,51.17
2018-03-06T07:25:38.008Z,54.87
2018-03-06T07:28:10.518Z,48.80
2018-03-06T07:30:43.147Z,57.80
2018-03-06T07:33:15.543Z,44.40
2018-03-06T07:35:48.801Z,43.93
2018-03-06T07:38:21.406Z,44.90
2018-03-06T07:40:54.024Z,41.67
2018-03-06T07:43:26.509Z,43.73
2018-03-06T07:45:59.119Z,43.33
2018-03-06T07:48:32.417Z,45.87
2018-03-06T07:51:05.510Z,37.27
2018-03-06T07:53:38.183Z,45.93
2018-03-06T07:56:10.814Z,42.23
2018-03-06T07:58:43.143Z,52.57
2018-03-06T08:01:15.583Z,41.73
2018-03-06T08:03:48.796Z,49.10
2018-03-06T08:06:22.402Z,43.80
2018-03-06T08:08:55.867Z,50.13
2018-03-06T08:11:29.501Z,47.87
2018-03-06T08:14:02.355Z,40.40
2018-03-06T08:16:34.828Z,54.30
2018-03-06T08:19:07.326Z,40.43
2018-03-06T08:21:39.968Z,42.27
2018-03-06T08:24:12.594Z,46.63
2018-03-06T08:26:45.875Z,56.53
2018-03-06T08:29:18.877Z,48.67
2018-03-06T08:31:51.241Z,47.30
2018-03-06T08:34:24.424Z,47.20
2018-03-06T08:36:57.990Z,47.00
2018-03-06T08:39:30.779Z,45.10
2018-03-06T08:42:03.471Z,51.70
2018-03-06T08:44:35.903Z,45.27
2018-03-06T08:47:08.337Z,49.77
2018-03-06T08:49:40.865Z,47.00
2018-03-06T08:52:14.046Z,54.80
2018-03-06T08:54:47.735Z,49.83
2018-03-06T08:57:20.448Z,48.60
2018-03-06T08:59:52.754Z,49.00
2018-03-06T09:02:25.999Z,50.30
2018-03-06T09:04:58.771Z,49.03
2018-03-06T09:07:31.389Z,46.20
2018-03-06T09:10:04.749Z,53.10
2018-03-06T09:12:37.201Z,48.67
2018-03-06T09:15:10.586Z,53.10
2018-03-06T09:17:43.127Z,53.13
2018-03-06T09:20:15.601Z,48.63
2018-03-06T09:22:48.845Z,46.97
2018-03-06T09:25:21.573Z,53.10
2018-03-06T09:27:54.956Z,56.20
2018-03-06T09:30:27.830Z,54.67
2018-03-06T09:33:00.484Z,53.13
2018-03-06T09:35:32.985Z,50.70
2018-03-06T09:38:05.448Z,48.10
2018-03-06T09:40:38.556Z,52.33
2018-03-06T09:43:11.211Z,56.40
2018-03-06T09:45:43.838Z,53.50
2018-03-06T09:48:17.120Z,51.07
2018-03-06T09:50:49.742Z,60.47
2018-03-06T09:53:22.443Z,51.63
2018-03-06T09:55:55.643Z,49.77
2018-03-06T09:58:28.398Z,50.80
2018-03-06T10:01:00.890Z,53.53
2018-03-06T10:03:34.126Z,50.90
2018-03-06T10:06:06.911Z,55.90
2018-03-06T10:08:40.376Z,51.20
2018-03-06T10:11:13.360Z,44.90
2018-03-06T10:13:47.284Z,53.07
2018-03-06T10:16:20.060Z,56.93
2018-03-06T10:18:52.437Z,50.47
2018-03-06T10:21:24.752Z,41.13
2018-03-06T10:23:58.098Z,48.60
2018-03-06T10:26:30.860Z,53.27
2018-03-06T10:29:03.229Z,51.83
2018-03-06T10:31:35.614Z,47.50
2018-03-06T10:34:08.099Z,53.13
2018-03-06T10:36:40.588Z,55.20
2018-03-06T10:39:13.918Z,46.23
2018-03-06T10:41:46.617Z,49.97
2018-03-06T10:44:19.885Z,50.37
2018-03-06T10:46:52.646Z,55.93
2018-03-06T10:49:25.324Z,55.63
2018-03-06T10:51:57.818Z,51.07
2018-03-06T10:54:30.464Z,51.67
2018-03-06T10:57:02.959Z,56.33
2018-03-06T10:59:35.590Z,49.77
2018-03-06T11:02:14.129Z,54.20
2018-03-06T11:04:47.489Z,53.27
2018-03-06T11:07:20.068Z,52.30
2018-03-06T11:09:52.780Z,57.37
2018-03-06T11:12:25.266Z,52.43
2018-03-06T11:14:57.784Z,55.40
2018-03-06T11:17:30.250Z,62.90
2018-03-06T11:20:02.676Z,63.40
2018-03-06T11:22:36.010Z,62.53
2018-03-06T11:25:08.720Z,63.17
2018-03-06T11:27:41.261Z,55.17
2018-03-06T11:30:13.740Z,67.10
2018-03-06T11:32:46.157Z,53.30
2018-03-06T11:35:18.733Z,51.90
2018-03-06T11:37:51.968Z,56.63
2018-03-06T11:40:24.752Z,55.87
2018-03-06T11:42:57.055Z,57.70
2018-03-06T11:45:30.296Z,49.03
2018-03-06T11:48:02.895Z,58.00
2018-03-06T11:50:35.417Z,60.30
2018-03-06T11:53:07.982Z,57.40
2018-03-06T11:55:40.612Z,59.63
2018-03-06T11:58:14.036Z,60.07
2018-03-06T12:00:46.541Z,49.97
2018-03-06T12:03:19.902Z,62.00
2018-03-06T12:05:53.356Z,51.77
2018-03-06T12:08:26.049Z,63.10
2018-03-06T12:10:58.641Z,56.77
2018-03-06T12:13:31.161Z,50.50
2018-03-06T12:16:03.626Z,45.07
2018-03-06T12:18:37.062Z,53.83
2018-03-06T12:21:09.474Z,53.90
2018-03-06T12:23:41.848Z,61.67
2018-03-06T12:26:14.431Z,52.97
2018-03-06T12:28:46.861Z,52.50
2018-03-06T12:31:20.154Z,58.60
2018-03-06T12:33:52.827Z,57.30
2018-03-06T12:36:25.275Z,60.63
2018-03-06T12:38:58.463Z,49.67
2018-03-06T12:41:32.094Z,51.77
2018-03-06T12:44:04.829Z,57.43
2018-03-06T12:46:37.256Z,59.13
2018-03-06T12:49:10.397Z,66.73
2018-03-06T12:51:43.099Z,57.50
2018-03-06T12:54:15.550Z,58.00
2018-03-06T12:56:48.219Z,62.80
2018-03-06T12:59:20.681Z,67.00
2018-03-06T13:01:53.832Z,69.77
2018-03-06T13:04:26.799Z,66.60
2018-03-06T13:06:59.367Z,56.30
2018-03-06T13:09:31.912Z,57.80
2018-03-06T13:12:04.465Z,60.23
2018-03-06T13:14:37.649Z,54.70
2018-03-06T13:17:10.299Z,64.40
2018-03-06T13:19:42.740Z,66.17
2018-03-06T13:22:15.140Z,57.27
2018-03-06T13:24:47.662Z,65.07
2018-03-06T13:27:20.158Z,59.27
2018-03-06T13:29:52.846Z,66.47
2018-03-06T13:32:25.295Z,63.67
2018-03-06T13:34:58.673Z,65.70
2018-03-06T13:37:31.203Z,55.93
2018-03-06T13:40:03.694Z,68.57
2018-03-06T13:42:36.068Z,61.17
2018-03-06T13:45:09.468Z,68.23
2018-03-06T13:47:41.953Z,65.97
2018-03-06T13:50:15.078Z,55.57
2018-03-06T13:52:48.531Z,52.70
2018-03-06T13:55:21.082Z,63.60
2018-03-06T13:57:53.526Z,55.43
2018-03-06T14:00:26.002Z,56.87
2018-03-06T14:02:58.347Z,69.20
2018-03-06T14:05:30.797Z,56.23
2018-03-06T14:08:03.285Z,55.90
2018-03-06T14:10:37.299Z,53.00
2018-03-06T14:13:10.175Z,52.30
2018-03-06T14:15:42.788Z,55.47
2018-03-06T14:18:15.374Z,55.63
2018-03-06T14:20:47.941Z,56.67
2018-03-06T14:23:21.332Z,59.87
2018-03-06T14:25:53.935Z,56.57
2018-03-06T14:28:27.139Z,56.57
2018-03-06T14:30:59.917Z,62.20
2018-03-06T14:33:33.261Z,53.13
2018-03-06T14:36:05.813Z,58.40
2018-03-06T14:38:38.414Z,57.90
2018-03-06T14:41:11.760Z,57.23
2018-03-06T14:43:44.419Z,51.30
2018-03-06T14:46:16.796Z,66.90
2018-03-06T14:48:50.097Z,53.47
2018-03-06T14:51:22.712Z,50.60
2018-03-06T14:53:55.248Z,59.03
2018-03-06T14:56:28.426Z,63.73
2018-03-06T14:59:01.776Z,54.10
2018-03-06T15:01:34.482Z,55.57
2018-03-06T15:04:07.087Z,62.00
2018-03-06T15:06:39.680Z,67.37
2018-03-06T15:09:12.794Z,50.13
2018-03-06T15:11:45.596Z,57.93
2018-03-06T15:14:18.117Z,48.97
2018-03-06T15:16:50.557Z,43.27
2018-03-06T15:19:23.811Z,67.73
2018-03-06T15:21:56.581Z,49.53
2018-03-06T15:24:28.933Z,49.97
2018-03-06T15:27:01.331Z,45.23
2018-03-06T15:29:34.005Z,48.60
2018-03-06T15:32:06.653Z,47.10
2018-03-06T15:34:39.355Z,51.93
2018-03-06T15:37:11.852Z,48.00
2018-03-06T15:39:44.393Z,51.47
2018-03-06T15:42:18.212Z,53.57
2018-03-06T15:44:51.181Z,57.57
2018-03-06T15:47:23.571Z,53.03
2018-03-06T15:49:56.961Z,59.53
2018-03-06T15:52:30.471Z,49.50
2018-03-06T15:55:03.623Z,52.40
2018-03-06T15:57:37.910Z,56.10
2018-03-06T16:00:11.027Z,53.40
2018-03-06T16:02:44.973Z,60.43
2018-03-06T16:05:17.747Z,49.87
2018-03-06T16:07:50.880Z,49.37
2018-03-06T16:10:23.638Z,53.90
2018-03-06T16:12:56.072Z,46.90
2018-03-06T16:15:28.526Z,50.17
2018-03-06T16:18:01.726Z,50.33
2018-03-06T16:20:34.229Z,53.67
2018-03-06T16:23:06.728Z,48.60
2018-03-06T16:25:39.418Z,58.50
2018-03-06T16:28:11.768Z,44.77
2018-03-06T16:30:44.240Z,56.77
2018-03-06T16:33:17.399Z,51.37
2018-03-06T16:35:50.053Z,49.50
2018-03-06T16:38:22.680Z,44.60
2018-03-06T16:40:55.151Z,51.60
2018-03-06T16:43:27.693Z,45.30
2018-03-06T16:46:00.212Z,46.00
2018-03-06T16:48:32.814Z,45.87
2018-03-06T16:51:05.281Z,52.23
2018-03-06T16:53:37.780Z,50.33
2018-03-06T16:56:10.262Z,48.07
2018-03-06T16:58:42.687Z,54.40
2018-03-06T17:01:15.318Z,49.70
2018-03-06T17:03:47.844Z,50.70
2018-03-06T17:06:21.179Z,51.97
2018-03-06T17:08:53.723Z,46.73
2018-03-06T17:11:26.232Z,55.20
2018-03-06T17:13:59.343Z,56.33
2018-03-06T17:16:32.129Z,56.00
2018-03-06T17:19:04.619Z,48.83
2018-03-06T17:21:38.873Z,46.00
2018-03-06T17:24:11.531Z,47.23
2018-03-06T17:26:43.912Z,46.87
2018-03-06T17:29:16.367Z,56.37
2018-03-06T17:31:49.077Z,55.43
2018-03-06T17:34:23.406Z,47.97
2018-03-06T17:36:56.117Z,55.70
2018-03-06T17:39:29.541Z,51.07
2018-03-06T17:42:02.048Z,53.10
2018-03-06T17:44:34.497Z,49.90
2018-03-06T17:47:07.193Z,52.70
2018-03-06T17:49:40.428Z,45.23
2018-03-06T17:52:14.030Z,50.07
2018-03-06T17:54:47.485Z,48.13
2018-03-06T17:57:20.167Z,53.00
2018-03-06T17:59:53.640Z,48.67
2018-03-06T18:02:27.376Z,48.10
2018-03-06T18:05:00.813Z,51.10
2018-03-06T18:07:34.544Z,51.40
2018-03-06T18:10:07.846Z,52.53
2018-03-06T18:12:42.690Z,52.47
2018-03-06T18:15:15.898Z,48.70
2018-03-06T18:17:49.053Z,52.70
2018-03-06T18:20:23.484Z,50.30
2018-03-06T18:22:57.573Z,48.17
2018-03-06T18:25:31.121Z,48.50
2018-03-06T18:28:04.981Z,51.60
2018-03-06T18:30:38.400Z,51.20
2018-03-06T18:33:11.750Z,50.30
2018-03-06T18:35:45.199Z,53.47
2018-03-06T18:38:19.843Z,49.30
2018-03-06T18:40:53.273Z,49.90
2018-03-06T18:43:26.570Z,47.03
2018-03-06T18:45:59.984Z,45.30
2018-03-06T18:48:33.888Z,48.90
2018-03-06T18:51:12.953Z,50.47
2018-03-06T18:53:46.679Z,50.07
2018-03-06T18:56:20.947Z,47.93
2018-03-06T18:58:54.729Z,45.97
2018-03-06T19:05:20.140Z,48.10
2018-03-06T19:07:54.384Z,47.37
2018-03-06T19:10:28.585Z,45.27
2018-03-06T19:13:02.586Z,48.03
2018-03-06T19:15:37.066Z,49.00
2018-03-06T19:18:11.372Z,46.73
2018-03-06T19:20:45.824Z,45.90
2018-03-06T19:23:21.091Z,50.23
2018-03-06T19:25:56.553Z,45.00
2018-03-06T19:28:31.247Z,46.80
2018-03-06T19:31:05.782Z,38.97
2018-03-06T19:33:40.154Z,38.40
2018-03-06T19:36:15.081Z,36.93
2018-03-06T19:38:49.369Z,28.23
2018-03-06T19:41:24.049Z,34.93
2018-03-06T19:43:58.384Z,31.20
2018-03-06T19:46:32.889Z,30.23
2018-03-06T19:49:06.973Z,35.70
2018-03-06T19:51:41.577Z,31.53
2018-03-06T19:54:15.840Z,39.00
2018-03-06T19:56:51.215Z,30.77
2018-03-06T19:59:26.063Z,28.43
2018-03-06T20:02:00.638Z,30.90
2018-03-06T20:04:34.915Z,30.67
2018-03-06T20:07:09.431Z,28.73
2018-03-06T20:09:45.217Z,28.27
2018-03-06T20:12:20.389Z,30.80
2018-03-06T20:15:00.350Z,29.57
2018-03-06T20:17:35.196Z,29.40
2018-03-06T20:20:09.697Z,32.57
2018-03-06T20:22:45.528Z,31.30
2018-03-06T20:25:26.237Z,30.27
2018-03-06T20:28:01.086Z,29.00
2018-03-06T20:30:41.339Z,31.40
2018-03-06T20:33:17.375Z,29.77
2018-03-06T20:35:52.235Z,29.67
2018-03-06T20:38:32.269Z,30.50
2018-03-06T20:41:07.539Z,31.63
2018-03-06T20:43:42.483Z,29.73
2018-03-06T20:46:22.747Z,33.00
2018-03-06T20:48:58.493Z,30.73
2018-03-06T20:51:33.072Z,32.73
2018-03-06T20:54:13.771Z,33.33
2018-03-06T20:56:48.304Z,30.23
2018-03-06T20:59:22.755Z,32.87
2018-03-06T21:01:57.043Z,30.97
2018-03-06T21:04:31.572Z,33.37
2018-03-06T21:07:06.540Z,33.70
2018-03-06T21:09:42.364Z,40.17
2018-03-06T21:12:17.912Z,40.20
2018-03-06T21:14:52.440Z,38.93
2018-03-06T21:17:26.923Z,38.90
2018-03-06T21:20:01.510Z,38.40
2018-03-06T21:22:36.573Z,40.90
2018-03-06T21:25:11.334Z,37.23
2018-03-06T21:27:45.635Z,38.13
2018-03-06T21:30:20.082Z,39.27
2018-03-06T21:32:55.299Z,37.03
2018-03-06T21:35:29.874Z,38.83
2018-03-06T21:38:03.502Z,33.57
2018-03-06T21:40:37.606Z,33.03
2018-03-06T21:43:11.696Z,34.57
2018-03-06T21:45:45.683Z,34.03
2018-03-06T21:48:19.248Z,31.87
2018-03-06T21:50:51.973Z,34.47
2018-03-06T21:53:25.380Z,32.73
2018-03-06T21:55:59.000Z,33.63
2018-03-06T21:58:31.754Z,27.90
2018-03-06T22:01:05.895Z,31.03
2018-03-06T22:03:38.830Z,28.33
2018-03-06T22:06:12.187Z,28.00
2018-03-06T22:08:44.789Z,28.17
2018-03-06T22:11:17.235Z,25.50
2018-03-06T22:13:49.655Z,28.07
2018-03-06T22:16:22.155Z,28.20
2018-03-06T22:18:55.392Z,25.93
2018-03-06T22:21:27.753Z,29.10
2018-03-06T22:24:00.151Z,28.80
2018-03-06T22:26:33.531Z,23.70
2018-03-06T22:29:05.937Z,24.30
2018-03-06T22:31:38.383Z,24.63
2018-03-06T22:34:10.983Z,20.50
2018-03-06T22:36:45.069Z,20.60
2018-03-06T22:39:17.831Z,22.17
2018-03-06T22:41:50.326Z,20.87
2018-03-06T22:44:22.804Z,21.30
2018-03-06T22:46:55.236Z,22.80
2018-03-06T22:49:27.756Z,22.43
2018-03-06T22:52:00.210Z,25.63
2018-03-06T22:54:33.322Z,24.13
2018-03-06T22:57:06.137Z,22.60
2018-03-06T22:59:38.577Z,21.93
2018-03-06T23:02:11.013Z,21.83
2018-03-06T23:04:43.429Z,17.93
2018-03-06T23:07:16.647Z,21.13
2018-03-06T23:09:49.181Z,20.57
2018-03-06T23:12:21.650Z,21.60
2018-03-06T23:14:54.103Z,23.50
2018-03-06T23:17:26.605Z,19.13
2018-03-06T23:19:59.720Z,20.83
2018-03-06T23:22:32.516Z,21.70
2018-03-06T23:25:04.862Z,21.50
2018-03-06T23:27:38.009Z,17.67
2018-03-06T23:30:10.603Z,18.03
2018-03-06T23:32:43.831Z,18.73
2018-03-06T23:35:16.449Z,19.53
2018-03-06T23:37:48.996Z,19.87
2018-03-06T23:40:21.458Z,18.13
2018-03-06T23:42:53.857Z,20.87
2018-03-06T23:45:26.312Z,20.70
2018-03-06T23:47:58.713Z,21.80
2018-03-06T23:50:32.085Z,18.40
2018-03-06T23:53:05.371Z,25.17
2018-03-06T23:55:37.859Z,21.37
2018-03-06T23:58:10.363Z,21.63
